Time;durP1;ratioP1;P1;durP2;ratioP2;P2;SDS_P1;SDS_P2;PMS_P1;PMS_P2;Temp;Humidity;BMP_temperature;BMP_pressure;BME280_temperature;BME280_humidity;BME280_pressure;Samples;Min_cycle;Max_cycle;Signal;HPM_P1;HPM_P2
2023/12/26 00:01:43;;;;;;;;;;;;;;;9.51;100.00;100549.09;5019006;28;19920;-66
2023/12/26 00:04:08;;;;;;;;;;;;;;;9.55;100.00;100555.75;5014745;28;20023;-67
2023/12/26 00:06:33;;;;;;;;;;;;;;;9.51;100.00;100559.72;5020438;28;20348;-67
2023/12/26 00:08:59;;;;;;;;;;;;;;;9.46;100.00;100546.16;5015430;28;21632;-67
2023/12/26 00:11:24;;;;;;;;;;;;;;;9.46;100.00;100565.53;5020314;28;19987;-67
2023/12/26 00:13:49;;;;;;;;;;;;;;;9.44;100.00;100545.50;5013490;28;19925;-67
2023/12/26 00:16:14;;;;;;;;;;;;;;;9.41;100.00;100546.66;5021639;28;19921;-67
2023/12/26 00:18:40;;;;;;;;;;;;;;;9.43;100.00;100530.59;5011542;28;19931;-66
2023/12/26 00:21:05;;;;;;;;;;;;;;;9.39;100.00;100545.19;5017269;28;19921;-66
2023/12/26 00:23:31;;;;;;;;;;;;;;;9.38;100.00;100546.19;5019274;28;19931;-67
2023/12/26 00:25:58;;;;;;;;;;;;;;;9.38;100.00;100549.66;5011189;28;19921;-66
2023/12/26 00:28:23;;;;;;;;;;;;;;;9.38;100.00;100549.66;5011663;28;19921;-66
2023/12/26 00:30:48;;;;;;;;;;;;;;;9.39;100.00;100556.59;5011964;28;19926;-66
2023/12/26 00:33:13;;;;;;;;;;;;;;;9.37;100.00;100545.34;5020847;28;19967;-67
2023/12/26 00:35:38;;;;;;;;;;;;;;;9.38;100.00;100544.34;5016348;28;19921;-67
2023/12/26 00:38:04;;;;;;;;;;;;;;;9.43;100.00;100565.88;5012810;28;20124;-67
2023/12/26 00:40:29;;;;;;;;;;;;;;;9.42;100.00;100560.75;5021390;28;19950;-67
2023/12/26 00:42:54;;;;;;;;;;;;;;;9.39;100.00;100542.53;5013673;28;19921;-67
2023/12/26 00:45:22;;;;;;;;;;;;;;;9.39;100.00;100550.47;5015339;28;19921;-67
2023/12/26 00:47:48;;;;;;;;;;;;;;;9.37;100.00;100542.69;5017032;28;19963;-67
2023/12/26 00:50:14;;;;;;;;;;;;;;;9.37;100.00;100540.06;5009475;28;20705;-67
2023/12/26 00:52:39;;;;;;;;;;;;;;;9.36;100.00;100537.56;5017173;28;20031;-67
2023/12/26 00:55:05;;;;;;;;;;;;;;;9.35;100.00;100527.97;5022219;28;19921;-67
2023/12/26 00:57:33;;;;;;;;;;;;;;;9.39;100.00;100550.47;5014064;28;19931;-67
2023/12/26 00:59:58;;;;;;;;;;;;;;;9.39;100.00;100539.88;5022234;28;19917;-66
2023/12/26 01:02:24;;;;;;;;;;;;;;;9.37;100.00;100542.69;5020848;28;19932;-67
2023/12/26 01:04:49;;;;;;;;;;;;;;;9.40;100.00;100552.97;5014670;28;19935;-66
2023/12/26 01:07:15;;;;;;;;;;;;;;;9.39;100.00;100558.44;5021977;28;19920;-67
2023/12/26 01:09:40;;;;;;;;;;;;;;;9.40;100.00;100557.44;5020943;28;20608;-67
2023/12/26 01:12:05;;;;;;;;;;;;;;;9.41;100.00;100565.22;5018182;28;19921;-67
2023/12/26 01:14:30;;;;;;;;;;;;;;;9.44;100.00;100572.81;5019017;28;19921;-66
2023/12/26 01:16:56;;;;;;;;;;;;;;;9.39;100.00;100553.97;5018224;28;19960;-67
2023/12/26 01:19:21;;;;;;;;;;;;;;;9.39;100.00;100550.47;5019399;28;20012;-67
2023/12/26 01:21:46;;;;;;;;;;;;;;;9.41;100.00;100557.25;5017653;28;20405;-67
2023/12/26 01:24:11;;;;;;;;;;;;;;;9.41;100.00;100565.22;5018653;28;20366;-67
2023/12/26 01:26:36;;;;;;;;;;;;;;;9.40;100.00;100565.38;5013422;28;20095;-67
2023/12/26 01:29:04;;;;;;;;;;;;;;;9.41;100.00;100559.09;5021199;28;19995;-67
2023/12/26 01:31:29;;;;;;;;;;;;;;;9.44;100.00;100572.00;5017458;28;19925;-67
2023/12/26 01:33:54;;;;;;;;;;;;;;;9.42;100.00;100566.88;5013329;28;19924;-67
2023/12/26 01:36:20;;;;;;;;;;;;;;;9.41;100.00;100569.69;5015640;28;19965;-67
2023/12/26 01:38:45;;;;;;;;;;;;;;;9.40;100.00;100560.91;5016949;28;20010;-67
2023/12/26 01:41:10;;;;;;;;;;;;;;;9.43;100.00;100573.00;5018840;28;19971;-66
2023/12/26 01:43:35;;;;;;;;;;;;;;;9.44;100.00;100580.78;5013236;28;20584;-67
2023/12/26 01:46:03;;;;;;;;;;;;;;;9.42;100.00;100574.81;5010948;28;19932;-67
2023/12/26 01:48:29;;;;;;;;;;;;;;;9.50;100.00;100603.94;5021129;28;20382;-68
2023/12/26 01:50:54;;;;;;;;;;;;;;;9.47;100.00;100591.03;5014570;28;19918;-67
2023/12/26 01:53:20;;;;;;;;;;;;;;;9.52;100.00;100617.84;5022725;28;19921;-67
2023/12/26 01:55:46;;;;;;;;;;;;;;;9.51;100.00;100610.91;5017555;28;20016;-67
2023/12/26 01:58:11;;;;;;;;;;;;;;;9.53;100.00;100622.16;5021127;28;20007;-66
2023/12/26 02:00:36;;;;;;;;;;;;;;;9.50;100.00;100603.94;5021223;28;19917;-67
2023/12/26 02:03:02;;;;;;;;;;;;;;;9.51;100.00;100616.19;5019091;28;20382;-67
2023/12/26 02:05:27;;;;;;;;;;;;;;;9.51;100.00;100621.50;5022030;28;20011;-69
2023/12/26 02:07:53;;;;;;;;;;;;;;;9.48;100.00;100619.19;5018938;28;19929;-67
2023/12/26 02:10:19;;;;;;;;;;;;;;;9.47;100.00;100616.72;5021118;28;19925;-68
2023/12/26 02:12:44;;;;;;;;;;;;;;;9.46;100.00;100615.88;5016965;28;19925;-68
2023/12/26 02:15:10;;;;;;;;;;;;;;;9.44;100.00;100617.88;5021717;28;19936;-68
2023/12/26 02:17:35;;;;;;;;;;;;;;;9.46;100.00;100607.94;5017700;28;19928;-68
2023/12/26 02:20:00;;;;;;;;;;;;;;;9.47;100.00;100611.41;5021300;28;19921;-67
2023/12/26 02:22:26;;;;;;;;;;;;;;;9.45;100.00;100624.84;5018879;28;19922;-68
2023/12/26 02:24:51;;;;;;;;;;;;;;;9.53;100.00;100638.06;5018190;28;19928;-67
2023/12/26 02:27:29;;;;;;;;;;;;;;;9.49;100.00;100649.19;5022581;28;19928;-68
2023/12/26 02:29:54;;;;;;;;;;;;;;;9.49;100.00;100636.75;5016507;28;20015;-68
2023/12/26 02:32:20;;;;;;;;;;;;;;;9.47;100.00;100625.50;5019008;28;20016;-68
2023/12/26 02:34:50;;;;;;;;;;;;;;;9.49;100.00;100639.41;5016771;28;19984;-68
2023/12/26 02:37:15;;;;;;;;;;;;;;;9.51;100.00;100648.00;5016694;28;19924;-68
2023/12/26 02:39:43;;;;;;;;;;;;;;;9.49;100.00;100631.44;5017382;28;20012;-68
2023/12/26 02:42:08;;;;;;;;;;;;;;;9.51;100.00;100637.41;5016007;28;19928;-68
2023/12/26 02:44:33;;;;;;;;;;;;;;;9.49;100.00;100641.22;5021827;28;20298;-68
2023/12/26 02:46:59;;;;;;;;;;;;;;;9.53;100.00;100653.97;5014415;28;20375;-68
2023/12/26 02:49:24;;;;;;;;;;;;;;;9.52;100.00;100643.53;5016318;28;20333;-68
2023/12/26 02:51:49;;;;;;;;;;;;;;;9.54;100.00;100650.34;5017232;28;20299;-68
2023/12/26 02:54:14;;;;;;;;;;;;;;;9.57;100.00;100657.97;5016694;28;20303;-68
2023/12/26 02:56:39;;;;;;;;;;;;;;;9.59;100.00;100663.94;5017660;28;19917;-68
2023/12/26 02:59:05;;;;;;;;;;;;;;;9.61;100.00;100667.22;5011408;28;19925;-69
2023/12/26 03:01:30;;;;;;;;;;;;;;;9.62;100.00;100676.84;5018923;28;20024;-68
2023/12/26 03:03:55;;;;;;;;;;;;;;;9.61;100.00;100677.84;5010414;28;20327;-69
2023/12/26 03:06:20;;;;;;;;;;;;;;;9.62;100.00;100674.19;5025272;28;19921;-68
2023/12/26 03:08:46;;;;;;;;;;;;;;;9.59;100.00;100690.44;5014523;28;19927;-68
2023/12/26 03:11:11;;;;;;;;;;;;;;;9.60;100.00;100686.78;5012595;28;19925;-68
2023/12/26 03:13:36;;;;;;;;;;;;;;;9.54;100.00;100691.91;5017768;28;19955;-68
2023/12/26 03:16:01;;;;;;;;;;;;;;;9.59;100.00;100697.56;5023043;28;19925;-68
2023/12/26 03:18:27;;;;;;;;;;;;;;;9.56;100.00;100685.47;5017812;28;19925;-69
2023/12/26 03:20:52;;;;;;;;;;;;;;;9.61;100.00;100708.81;5017392;28;19922;-68
2023/12/26 03:23:17;;;;;;;;;;;;;;;9.60;100.00;100697.41;5016871;28;19925;-68
2023/12/26 03:25:43;;;;;;;;;;;;;;;9.50;100.00;100702.03;5020675;28;19925;-68
2023/12/26 03:28:08;;;;;;;;;;;;;;;9.51;100.00;100700.19;5017331;28;19928;-69
2023/12/26 03:30:33;;;;;;;;;;;;;;;9.43;100.00;100703.69;5018789;28;19921;-69
2023/12/26 03:32:59;;;;;;;;;;;;;;;9.39;100.00;100706.84;5007488;28;19932;-69
2023/12/26 03:35:24;;;;;;;;;;;;;;;9.39;100.00;100701.53;5016067;28;19921;-68
2023/12/26 03:37:49;;;;;;;;;;;;;;;9.41;100.00;100697.72;5011058;28;19929;-69
2023/12/26 03:40:16;;;;;;;;;;;;;;;9.28;100.00;100685.00;5018992;28;19928;-69
2023/12/26 03:42:42;;;;;;;;;;;;;;;9.20;100.00;100706.16;5014864;28;19925;-69
2023/12/26 03:45:08;;;;;;;;;;;;;;;9.21;100.00;100707.81;5018569;28;19998;-68
2023/12/26 03:47:33;;;;;;;;;;;;;;;9.28;100.00;100716.78;5008757;28;19936;-68
2023/12/26 03:49:58;;;;;;;;;;;;;;;9.18;100.00;100715.28;5010717;28;20433;-68
2023/12/26 03:52:23;;;;;;;;;;;;;;;9.15;100.00;100718.25;5012876;28;19928;-70
2023/12/26 03:54:48;;;;;;;;;;;;;;;9.14;100.00;100721.91;5011457;28;20619;-71
2023/12/26 03:57:14;;;;;;;;;;;;;;;9.12;100.00;100723.88;5022114;28;20653;-68
2023/12/26 03:59:39;;;;;;;;;;;;;;;9.06;100.00;100716.59;5015492;28;20655;-69
2023/12/26 04:02:04;;;;;;;;;;;;;;;8.99;100.00;100732.31;5021744;28;19983;-68
2023/12/26 04:04:29;;;;;;;;;;;;;;;9.02;100.00;100733.81;5023497;28;19924;-69
2023/12/26 04:06:55;;;;;;;;;;;;;;;8.94;100.00;100722.19;5023404;28;19929;-68
2023/12/26 04:09:20;;;;;;;;;;;;;;;9.08;100.00;100749.06;5018632;28;19927;-69
2023/12/26 04:11:45;;;;;;;;;;;;;;;9.00;100.00;100742.75;5021562;28;19920;-69
2023/12/26 04:14:11;;;;;;;;;;;;;;;8.97;100.00;100740.44;5019914;28;19983;-68
2023/12/26 04:16:36;;;;;;;;;;;;;;;8.99;100.00;100745.56;5019739;28;19924;-70
2023/12/26 04:19:02;;;;;;;;;;;;;;;9.01;100.00;100748.88;5020758;28;19925;-68
2023/12/26 04:21:27;;;;;;;;;;;;;;;8.99;100.00;100745.56;5022768;28;19920;-69
2023/12/26 04:23:52;;;;;;;;;;;;;;;9.00;100.00;100744.56;5017976;28;20373;-68
2023/12/26 04:26:17;;;;;;;;;;;;;;;9.00;100.00;100753.34;5017809;28;19917;-68
2023/12/26 04:28:44;;;;;;;;;;;;;;;9.11;100.00;100770.75;5013915;28;19917;-69
2023/12/26 04:31:10;;;;;;;;;;;;;;;9.18;100.00;100763.78;5022263;28;19921;-69
2023/12/26 04:33:35;;;;;;;;;;;;;;;9.13;100.00;100778.53;5019211;28;19921;-68
2023/12/26 04:36:00;;;;;;;;;;;;;;;9.20;100.00;100774.22;5021366;28;19936;-68
2023/12/26 04:38:26;;;;;;;;;;;;;;;9.19;100.00;100784.00;5016871;28;20406;-70
2023/12/26 04:40:51;;;;;;;;;;;;;;;9.23;100.00;100792.44;5012408;28;19922;-69
2023/12/26 04:43:18;;;;;;;;;;;;;;;9.28;100.00;100801.59;5016039;28;19925;-73
2023/12/26 04:45:43;;;;;;;;;;;;;;;9.27;100.00;100807.06;5019217;28;19917;-69
2023/12/26 04:48:09;;;;;;;;;;;;;;;9.26;100.00;100818.66;5017384;28;20341;-68
2023/12/26 04:50:34;;;;;;;;;;;;;;;9.20;100.00;100817.44;5019938;28;19995;-70
2023/12/26 04:53:01;;;;;;;;;;;;;;;9.26;100.00;100813.34;5017208;28;20496;-69
2023/12/26 04:55:26;;;;;;;;;;;;;;;9.22;100.00;100815.47;5015569;28;20000;-69
2023/12/26 04:57:51;;;;;;;;;;;;;;;9.24;100.00;100818.78;5019206;28;19996;-68
2023/12/26 05:00:16;;;;;;;;;;;;;;;9.08;100.00;100825.88;5014970;28;20012;-69
2023/12/26 05:02:42;;;;;;;;;;;;;;;9.12;100.00;100835.97;5016397;28;20016;-70
2023/12/26 05:05:07;;;;;;;;;;;;;;;9.19;100.00;100844.09;5018964;28;20413;-69
2023/12/26 05:07:32;;;;;;;;;;;;;;;9.02;100.00;100839.78;5015480;28;19922;-68
2023/12/26 05:09:58;;;;;;;;;;;;;;;8.97;100.00;100858.78;5013441;28;19917;-68
2023/12/26 05:12:23;;;;;;;;;;;;;;;8.91;100.00;100847.00;5018792;28;19999;-68
2023/12/26 05:14:48;;;;;;;;;;;;;;;8.88;100.00;100855.25;5018770;28;19921;-69
2023/12/26 05:17:14;;;;;;;;;;;;;;;8.82;100.00;100861.19;5016764;28;19931;-68
2023/12/26 05:19:40;;;;;;;;;;;;;;;8.82;100.00;100861.19;5017280;28;20397;-68
2023/12/26 05:22:05;;;;;;;;;;;;;;;8.76;100.00;100866.31;5014869;28;19921;-69
2023/12/26 05:24:34;;;;;;;;;;;;;;;8.76;100.00;100858.34;5016886;28;20007;-69
2023/12/26 05:26:59;;;;;;;;;;;;;;;8.67;100.00;100862.75;5010622;28;19975;-70
2023/12/26 05:29:24;;;;;;;;;;;;;;;8.63;100.00;100875.50;5014537;28;19929;-69
2023/12/26 05:31:50;;;;;;;;;;;;;;;8.66;100.00;100871.69;5014463;28;20298;-68
2023/12/26 05:34:16;;;;;;;;;;;;;;;8.65;100.00;100885.91;5011165;28;20361;-69
2023/12/26 05:36:42;;;;;;;;;;;;;;;8.63;100.00;100885.25;5019479;28;19921;-69
2023/12/26 05:39:07;;;;;;;;;;;;;;;8.66;100.00;100899.00;5013048;28;19932;-69
2023/12/26 05:41:33;;;;;;;;;;;;;;;8.63;100.00;100901.13;5017329;28;20179;-68
2023/12/26 05:43:58;;;;;;;;;;;;;;;8.64;100.00;100908.09;5014080;28;20020;-69
2023/12/26 05:46:27;;;;;;;;;;;;;;;8.61;100.00;100911.03;5010384;28;20013;-69
2023/12/26 05:48:53;;;;;;;;;;;;;;;8.61;100.00;100919.00;5006468;28;19921;-69
2023/12/26 05:51:18;;;;;;;;;;;;;;;8.58;100.00;100925.44;5014439;28;20026;-69
2023/12/26 05:53:43;;;;;;;;;;;;;;;8.57;100.00;100925.59;5022278;28;19916;-69
2023/12/26 05:56:08;;;;;;;;;;;;;;;8.62;100.00;100936.53;5021882;28;19955;-69
2023/12/26 05:58:34;;;;;;;;;;;;;;;8.61;100.00;100937.50;5018738;28;19917;-69
2023/12/26 06:00:59;;;;;;;;;;;;;;;8.61;100.00;100941.00;5019017;28;19925;-69
2023/12/26 06:03:24;;;;;;;;;;;;;;;8.65;100.00;100944.16;5019643;28;19929;-68
2023/12/26 06:05:49;;;;;;;;;;;;;;;8.63;100.00;100946.13;5016971;28;20015;-69
2023/12/26 06:08:15;;;;;;;;;;;;;;;8.67;100.00;100955.41;5017067;28;19971;-69
2023/12/26 06:10:40;;;;;;;;;;;;;;;8.67;100.00;100963.38;5018060;28;20374;-69
2023/12/26 06:13:05;;;;;;;;;;;;;;;8.68;100.00;100971.19;5018318;28;19925;-70
2023/12/26 06:15:31;;;;;;;;;;;;;;;8.68;100.00;100960.59;5012731;28;19921;-69
2023/12/26 06:17:58;;;;;;;;;;;;;;;8.70;100.00;100973.66;5011969;28;19925;-68
2023/12/26 06:20:24;;;;;;;;;;;;;;;8.61;100.00;100961.34;5013490;28;20027;-68
2023/12/26 06:22:49;;;;;;;;;;;;;;;8.53;100.00;100983.28;5018355;28;20003;-69
2023/12/26 06:25:15;;;;;;;;;;;;;;;8.49;100.00;100984.59;5015644;28;20646;-68
2023/12/26 06:27:40;;;;;;;;;;;;;;;8.41;100.00;101002.22;5014201;28;19974;-69
2023/12/26 06:30:05;;;;;;;;;;;;;;;8.30;100.00;100996.13;5014090;28;19921;-69
2023/12/26 06:32:31;;;;;;;;;;;;;;;8.23;100.00;100996.91;5012777;28;19956;-69
2023/12/26 06:34:56;;;;;;;;;;;;;;;8.18;100.00;100991.25;5017958;28;19917;-68
2023/12/26 06:37:21;;;;;;;;;;;;;;;8.15;100.00;101000.31;5017764;28;19921;-68
2023/12/26 06:39:46;;;;;;;;;;;;;;;8.08;100.00;101000.06;5013895;28;19928;-69
2023/12/26 06:42:12;;;;;;;;;;;;;;;7.99;100.00;101000.97;5021591;28;20367;-69
2023/12/26 06:44:37;;;;;;;;;;;;;;;7.92;100.00;101012.28;5018870;28;20669;-68
2023/12/26 06:47:03;;;;;;;;;;;;;;;7.91;100.00;101006.19;5012904;28;19921;-68
2023/12/26 06:49:28;;;;;;;;;;;;;;;7.90;100.00;101016.91;5018731;28;20374;-70
2023/12/26 06:51:54;;;;;;;;;;;;;;;7.84;100.00;101020.16;5015788;28;20028;-72
2023/12/26 06:54:19;;;;;;;;;;;;;;;7.77;100.00;101018.06;5020775;28;19925;-68
2023/12/26 06:56:44;;;;;;;;;;;;;;;7.73;100.00;101032.56;5022678;28;20518;-69
2023/12/26 06:59:09;;;;;;;;;;;;;;;7.67;100.00;101035.81;5018883;28;20054;-69
2023/12/26 07:01:35;;;;;;;;;;;;;;;7.71;100.00;101039.00;5021025;28;19928;-71
2023/12/26 07:04:00;;;;;;;;;;;;;;;7.65;100.00;101039.56;5013800;28;19935;-70
2023/12/26 07:06:26;;;;;;;;;;;;;;;7.65;100.00;101034.28;5015259;28;20032;-69
2023/12/26 07:08:51;;;;;;;;;;;;;;;7.62;100.00;101048.63;5013030;28;19922;-69
2023/12/26 07:11:17;;;;;;;;;;;;;;;7.55;100.00;101054.66;5016721;28;19965;-69
2023/12/26 07:13:42;;;;;;;;;;;;;;;7.55;100.00;101054.66;5017192;28;19929;-69
2023/12/26 07:16:07;;;;;;;;;;;;;;;7.52;100.00;101065.50;5018468;28;19925;-68
2023/12/26 07:18:33;;;;;;;;;;;;;;;7.45;100.00;101071.38;5019919;28;19921;-68
2023/12/26 07:20:58;;;;;;;;;;;;;;;7.40;100.00;101072.78;5017852;28;20615;-68
2023/12/26 07:23:23;;;;;;;;;;;;;;;7.41;100.00;101080.56;5014845;28;19925;-69
2023/12/26 07:25:49;;;;;;;;;;;;;;;7.39;100.00;101085.16;5016931;28;19959;-68
2023/12/26 07:28:17;;;;;;;;;;;;;;;7.45;100.00;101086.38;5014491;28;19921;-69
2023/12/26 07:30:42;;;;;;;;;;;;;;;7.46;100.00;101086.25;5022400;28;20101;-68
2023/12/26 07:33:07;;;;;;;;;;;;;;;7.47;100.00;101101.13;5010327;28;20478;-69
2023/12/26 07:35:35;;;;;;;;;;;;;;;7.41;100.00;101111.44;5020787;28;19960;-69
2023/12/26 07:38:00;;;;;;;;;;;;;;;7.43;100.00;101110.31;5014208;28;19921;-70
2023/12/26 07:40:26;;;;;;;;;;;;;;;7.47;100.00;101118.78;5013636;28;19921;-68
2023/12/26 07:42:51;;;;;;;;;;;;;;;7.54;100.00;101124.34;5013748;28;19921;-71
2023/12/26 07:45:18;;;;;;;;;;;;;;;7.52;100.00;101128.91;5008973;28;19929;-69
2023/12/26 07:47:43;;;;;;;;;;;;;;;7.61;100.00;101123.63;5013707;28;19928;-69
2023/12/26 07:50:09;;;;;;;;;;;;;;;7.65;100.00;101121.50;5011901;28;19925;-71
2023/12/26 07:52:34;;;;;;;;;;;;;;;7.68;100.00;101121.22;5018328;28;19921;-71
2023/12/26 07:55:00;;;;;;;;;;;;;;;7.67;100.00;101125.69;5008744;28;21690;-69
2023/12/26 07:57:25;;;;;;;;;;;;;;;7.73;99.62;101121.63;5016023;28;20011;-70
2023/12/26 07:59:50;;;;;;;;;;;;;;;7.81;99.74;101139.41;5016112;28;19928;-69
2023/12/26 08:02:16;;;;;;;;;;;;;;;7.78;99.61;101137.88;5019902;28;19921;-69
2023/12/26 08:04:41;;;;;;;;;;;;;;;7.73;99.47;101143.59;5016982;28;20040;-71
2023/12/26 08:07:07;;;;;;;;;;;;;;;7.72;99.50;101147.22;5018667;28;19925;-68
2023/12/26 08:09:33;;;;;;;;;;;;;;;7.68;99.13;101161.72;5016880;28;19975;-69
2023/12/26 08:11:59;;;;;;;;;;;;;;;7.69;99.10;101171.31;5013045;28;19922;-69
2023/12/26 08:14:24;;;;;;;;;;;;;;;7.70;99.00;101180.91;5015674;28;19921;-68
2023/12/26 08:16:49;;;;;;;;;;;;;;;7.74;99.29;101186.72;5013741;28;19948;-69
2023/12/26 08:19:15;;;;;;;;;;;;;;;7.77;99.16;101184.63;5011322;28;19922;-64
2023/12/26 08:21:40;;;;;;;;;;;;;;;7.83;99.19;101193.00;5014763;28;20048;-70
2023/12/26 08:24:07;;;;;;;;;;;;;;;7.82;99.43;101199.25;5012008;28;19925;-70
2023/12/26 08:26:32;;;;;;;;;;;;;;;7.84;98.95;101197.28;5013801;28;19929;-69
2023/12/26 08:28:57;;;;;;;;;;;;;;;7.83;99.22;101206.22;5012812;28;19921;-69
2023/12/26 08:31:23;;;;;;;;;;;;;;;7.83;99.50;101201.75;5010336;28;20713;-68
2023/12/26 08:33:48;;;;;;;;;;;;;;;7.86;99.18;101200.63;5009755;28;19921;-68
2023/12/26 08:36:13;;;;;;;;;;;;;;;7.94;98.96;101201.56;5017753;28;19925;-71
2023/12/26 08:38:41;;;;;;;;;;;;;;;7.91;98.98;101217.72;5013495;28;19976;-68
2023/12/26 08:41:06;;;;;;;;;;;;;;;7.94;98.91;101217.44;5008883;28;19921;-68
2023/12/26 08:43:32;;;;;;;;;;;;;;;7.94;98.54;101214.78;5021001;28;19925;-68
2023/12/26 08:45:57;;;;;;;;;;;;;;;7.95;98.59;101220.91;5013226;28;19922;-68
2023/12/26 08:48:23;;;;;;;;;;;;;;;7.94;98.69;101225.38;5010995;28;19921;-68
2023/12/26 08:50:48;;;;;;;;;;;;;;;7.96;98.81;101230.50;5004728;28;19936;-69
2023/12/26 08:53:13;;;;;;;;;;;;;;;8.01;99.11;101241.47;5011874;28;19925;-68
2023/12/26 08:55:38;;;;;;;;;;;;;;;7.96;99.06;101249.84;5013318;28;19931;-68
2023/12/26 08:58:03;;;;;;;;;;;;;;;8.02;99.33;101253.72;5016275;28;19920;-68
2023/12/26 09:00:29;;;;;;;;;;;;;;;8.03;99.21;101260.69;5019125;28;19921;-69
2023/12/26 09:02:54;;;;;;;;;;;;;;;8.07;99.18;101251.47;5017832;28;19924;-70
2023/12/26 09:05:20;;;;;;;;;;;;;;;8.17;98.12;101241.72;5015717;28;19921;-67
2023/12/26 09:07:45;;;;;;;;;;;;;;;8.22;98.23;101250.06;5016875;28;19944;-68
2023/12/26 09:10:10;;;;;;;;;;;;;;;8.28;97.84;101257.41;5017579;28;20003;-68
2023/12/26 09:12:35;;;;;;;;;;;;;;;8.34;97.50;101272.72;5016946;28;19927;-72
2023/12/26 09:15:01;;;;;;;;;;;;;;;8.38;97.26;101279.41;5012936;28;20052;-68
2023/12/26 09:17:26;;;;;;;;;;;;;;;8.41;97.05;101280.09;5016957;28;19937;-69
2023/12/26 09:19:51;;;;;;;;;;;;;;;8.37;96.99;101284.81;5014780;28;19921;-69
2023/12/26 09:22:16;;;;;;;;;;;;;;;8.36;97.17;101289.28;5023257;28;19924;-68
2023/12/26 09:24:43;;;;;;;;;;;;;;;8.33;96.98;101305.44;5011478;28;19987;-67
2023/12/26 09:27:08;;;;;;;;;;;;;;;8.29;96.45;101303.22;5017244;28;19971;-67
2023/12/26 09:29:33;;;;;;;;;;;;;;;8.29;96.50;101319.09;5014711;28;20408;-68
2023/12/26 09:31:58;;;;;;;;;;;;;;;8.26;96.64;101314.91;5016154;28;19917;-70
2023/12/26 09:34:24;;;;;;;;;;;;;;;8.18;97.04;101316.63;5012356;28;19932;-68
2023/12/26 09:36:49;;;;;;;;;;;;;;;8.13;96.67;101322.34;5016582;28;19934;-68
2023/12/26 09:39:14;;;;;;;;;;;;;;;8.14;96.66;101331.94;5017963;28;19928;-68
2023/12/26 09:41:41;;;;;;;;;;;;;;;8.09;96.20;101344.75;5013338;28;19932;-73
2023/12/26 09:44:06;;;;;;;;;;;;;;;8.05;96.22;101340.72;5013589;28;19959;-68
2023/12/26 09:46:32;;;;;;;;;;;;;;;7.96;96.44;101345.06;5020324;28;19956;-68
2023/12/26 09:48:57;;;;;;;;;;;;;;;7.95;96.38;101356.63;5010823;28;19921;-68
2023/12/26 09:51:22;;;;;;;;;;;;;;;7.95;96.40;101353.97;5015263;28;19921;-68
2023/12/26 09:53:54;;;;;;;;;;;;;;;8.02;96.03;101351.59;5015357;28;19960;-67
2023/12/26 09:56:21;;;;;;;;;;;;;;;8.03;95.82;101347.97;5014585;28;19921;-68
2023/12/26 09:58:46;;;;;;;;;;;;;;;8.07;95.94;101352.81;5019819;28;20275;-68
2023/12/26 10:01:12;;;;;;;;;;;;;;;8.21;95.70;101353.38;5016071;28;19928;-68
2023/12/26 10:03:38;;;;;;;;;;;;;;;8.22;95.49;101361.16;5019748;28;19922;-71
2023/12/26 10:06:04;;;;;;;;;;;;;;;8.32;95.64;101377.84;5015124;28;20019;-67
2023/12/26 10:08:29;;;;;;;;;;;;;;;8.31;95.86;101396.50;5021736;28;19921;-68
2023/12/26 10:10:55;;;;;;;;;;;;;;;8.35;95.54;101390.81;5023967;28;20365;-67
2023/12/26 10:13:20;;;;;;;;;;;;;;;8.42;95.78;101400.88;5020691;28;19933;-68
2023/12/26 10:15:46;;;;;;;;;;;;;;;8.43;95.67;101421.06;5019389;28;20560;-68
2023/12/26 10:18:11;;;;;;;;;;;;;;;8.50;95.72;101417.69;5018723;28;19928;-69
2023/12/26 10:20:36;;;;;;;;;;;;;;;8.54;95.59;101413.78;5021987;28;19928;-68
2023/12/26 10:23:02;;;;;;;;;;;;;;;8.61;95.47;101400.78;5020455;28;19921;-68
2023/12/26 10:25:27;;;;;;;;;;;;;;;8.62;95.09;101398.00;5021236;28;19932;-69
2023/12/26 10:27:54;;;;;;;;;;;;;;;8.65;95.13;101400.34;5018369;28;20402;-69
2023/12/26 10:30:20;;;;;;;;;;;;;;;8.70;94.93;101402.59;5017361;28;20001;-68
2023/12/26 10:32:45;;;;;;;;;;;;;;;8.81;94.53;101414.81;5016329;28;20571;-68
2023/12/26 10:35:14;;;;;;;;;;;;;;;8.78;93.05;101383.31;5019723;28;22146;-71
2023/12/26 10:37:39;;;;;;;;;;;;;;;8.78;92.12;101391.28;5019104;28;19917;-68
2023/12/26 10:40:05;;;;;;;;;;;;;;;8.90;92.28;101404.16;5012577;28;19971;-69
2023/12/26 10:42:31;;;;;;;;;;;;;;;8.90;91.51;101406.00;5017622;28;19975;-68
2023/12/26 10:45:05;;;;;;;;;;;;;;;8.93;92.28;101401.22;5019132;28;19975;-69
2023/12/26 10:47:32;;;;;;;;;;;;;;;8.92;91.72;101411.97;5014225;28;19924;-67
2023/12/26 10:49:59;;;;;;;;;;;;;;;9.03;91.62;101405.66;5021586;28;20358;-67
2023/12/26 10:52:27;;;;;;;;;;;;;;;8.93;91.09;101413.63;5023110;28;20349;-68
2023/12/26 10:54:55;;;;;;;;;;;;;;;9.00;91.15;101417.41;5018333;28;19921;-71
2023/12/26 10:57:21;;;;;;;;;;;;;;;9.03;91.54;101413.63;5022362;28;20532;-68
2023/12/26 13:54:05;;;;;;;;;;;;;;;8.65;91.23;101613.97;5024006;28;20654;-68
2023/12/26 13:56:30;;;;;;;;;;;;;;;8.67;91.51;101622.63;5018980;28;19976;-69
2023/12/26 13:58:55;;;;;;;;;;;;;;;8.61;91.71;101621.38;5017834;28;19963;-68
2023/12/26 14:01:22;;;;;;;;;;;;;;;8.60;91.64;101621.50;5021388;28;19961;-68
2023/12/26 14:03:51;;;;;;;;;;;;;;;8.52;92.04;101643.38;5016977;28;19932;-68
2023/12/26 14:06:20;;;;;;;;;;;;;;;8.48;92.40;101646.44;5020523;28;19949;-67
2023/12/26 14:08:47;;;;;;;;;;;;;;;8.45;92.92;101636.97;5015080;28;19921;-67
2023/12/26 14:11:12;;;;;;;;;;;;;;;8.46;93.37;101653.69;5019570;28;19917;-68
2023/12/26 14:13:37;;;;;;;;;;;;;;;8.47;93.31;101650.06;5022318;28;20449;-67
2023/12/26 14:16:02;;;;;;;;;;;;;;;8.45;93.65;101650.22;5015910;28;19922;-68
2023/12/26 14:18:28;;;;;;;;;;;;;;;8.41;93.39;101651.47;5022232;28;19917;-69
2023/12/26 14:20:53;;;;;;;;;;;;;;;8.45;93.76;101650.22;5019804;28;19917;-68
2023/12/26 14:23:18;;;;;;;;;;;;;;;8.41;93.42;101640.03;5019283;28;19937;-68
2023/12/26 14:25:43;;;;;;;;;;;;;;;8.47;92.66;101653.56;5018058;28;19927;-70
2023/12/26 14:28:09;;;;;;;;;;;;;;;8.46;91.33;101670.41;5015663;28;19983;-68
2023/12/26 14:30:34;;;;;;;;;;;;;;;8.43;90.57;101665.41;5020887;28;19947;-68
2023/12/26 14:32:59;;;;;;;;;;;;;;;8.44;89.63;101672.34;5017035;28;19921;-68
2023/12/26 14:35:24;;;;;;;;;;;;;;;8.41;89.28;101683.22;5019051;28;19922;-68
2023/12/26 14:37:50;;;;;;;;;;;;;;;8.48;89.48;101684.34;5020350;28;20345;-68
2023/12/26 14:40:15;;;;;;;;;;;;;;;8.47;88.40;101679.19;5013940;28;20625;-70
2023/12/26 14:42:40;;;;;;;;;;;;;;;8.45;87.03;101689.06;5022230;28;20349;-70
2023/12/26 14:45:05;;;;;;;;;;;;;;;8.46;86.50;101693.41;5017704;28;20009;-68
2023/12/26 14:47:30;;;;;;;;;;;;;;;8.45;86.10;101694.38;5017814;28;19932;-68
2023/12/26 14:49:56;;;;;;;;;;;;;;;8.40;85.14;101707.19;5013615;28;19928;-68
2023/12/26 14:52:21;;;;;;;;;;;;;;;8.37;85.25;101703.81;5016195;28;19932;-67
2023/12/26 14:54:47;;;;;;;;;;;;;;;8.34;84.52;101701.44;5018883;28;20024;-68
2023/12/26 14:57:12;;;;;;;;;;;;;;;8.37;84.75;101708.25;5021718;28;19987;-68
2023/12/26 14:59:37;;;;;;;;;;;;;;;8.31;84.32;101712.25;5012279;28;19975;-68
2023/12/26 15:02:03;;;;;;;;;;;;;;;8.33;84.59;101720.06;5019865;28;19956;-69
2023/12/26 15:04:29;;;;;;;;;;;;;;;8.36;84.27;101723.31;5016518;28;19928;-69
2023/12/26 15:06:56;;;;;;;;;;;;;;;8.40;84.40;101720.41;5012461;28;19991;-68
2023/12/26 15:09:21;;;;;;;;;;;;;;;8.35;84.08;101721.63;5011573;28;19926;-68
2023/12/26 15:11:47;;;;;;;;;;;;;;;8.29;84.35;101723.94;5009925;28;19928;-67
2023/12/26 15:14:12;;;;;;;;;;;;;;;8.30;84.54;101728.28;5006650;28;20350;-69
2023/12/26 15:16:38;;;;;;;;;;;;;;;8.27;84.72;101723.25;5015515;28;19948;-69
2023/12/26 15:19:03;;;;;;;;;;;;;;;8.27;84.62;101724.09;5021247;28;19947;-69
2023/12/26 15:21:28;;;;;;;;;;;;;;;8.20;85.15;101735.34;5012338;28;19924;-68
2023/12/26 15:23:53;;;;;;;;;;;;;;;8.14;85.49;101728.78;5011859;28;19953;-69
2023/12/26 15:26:19;;;;;;;;;;;;;;;8.16;85.91;101742.72;5016791;28;19923;-69